createdAt,value
2022-08-03T02:23:23.812Z,3.78
2022-08-03T02:28:32.558Z,3.30
2022-08-03T02:33:41.295Z,4.60
2022-08-03T02:38:49.589Z,4.68
2022-08-03T02:44:05.683Z,4.90
2022-08-03T02:49:42.667Z,5.20
2022-08-03T02:54:38.007Z,4.97
2022-08-03T02:59:42.082Z,5.03
2022-08-03T03:05:52.834Z,5.18
2022-08-03T03:10:10.922Z,4.95
2022-08-03T03:15:13.486Z,5.82
2022-08-03T03:20:16.842Z,5.13
2022-08-03T03:25:33.972Z,5.25
2022-08-03T03:30:36.831Z,5.50
2022-08-03T03:35:41.825Z,4.85
2022-08-03T03:40:46.077Z,5.35
2022-08-03T03:46:38.641Z,4.93
2022-08-03T03:51:41.262Z,4.65
2022-08-03T03:56:44.671Z,4.97
2022-08-03T04:01:47.381Z,5.07
2022-08-03T04:07:19.923Z,4.80
2022-08-03T04:12:26.797Z,4.57
2022-08-03T04:17:31.080Z,4.68
2022-08-03T04:22:34.876Z,4.55
2022-08-03T04:27:41.926Z,5.45
2022-08-03T04:32:50.353Z,4.65
2022-08-03T04:37:55.394Z,4.78
2022-08-03T04:43:00.149Z,4.05
2022-08-03T04:48:03.342Z,4.00
2022-08-03T04:53:06.849Z,3.92
2022-08-03T04:58:12.098Z,3.97
2022-08-03T05:03:23.653Z,3.85
2022-08-03T05:08:28.053Z,3.33
2022-08-03T05:13:31.789Z,3.78
2022-08-03T05:18:35.495Z,3.60
2022-08-03T05:23:38.158Z,3.42
2022-08-03T05:28:49.927Z,3.33
2022-08-03T05:33:54.879Z,2.92
2022-08-03T05:39:02.210Z,2.90
2022-08-03T05:44:06.671Z,2.80
2022-08-03T05:49:12.048Z,2.80
2022-08-03T05:54:14.818Z,2.80
2022-08-03T05:59:37.659Z,2.50
2022-08-03T06:04:40.858Z,2.58
2022-08-03T06:10:34.467Z,2.20
2022-08-03T06:15:11.274Z,2.33
2022-08-03T06:20:16.098Z,2.38
2022-08-03T06:25:21.328Z,2.25
2022-08-03T06:30:25.129Z,2.20
2022-08-03T06:35:28.119Z,2.13
2022-08-03T06:40:31.755Z,2.47
2022-08-03T06:45:35.828Z,2.35
2022-08-03T06:50:41.063Z,2.20
2022-08-03T06:55:45.363Z,2.03
2022-08-03T07:00:49.240Z,2.03
2022-08-03T07:05:51.897Z,2.10
2022-08-03T07:10:54.883Z,2.25
2022-08-03T07:16:01.733Z,2.28
2022-08-03T07:21:04.441Z,1.70
2022-08-03T07:26:07.187Z,1.88
2022-08-03T07:31:11.055Z,2.10
2022-08-03T07:36:13.840Z,1.63
2022-08-03T07:41:16.836Z,1.92
2022-08-03T07:46:20.216Z,2.00
2022-08-03T07:51:23.556Z,1.83
2022-08-03T07:56:27.628Z,1.83
2022-08-03T08:01:36.072Z,2.05
2022-08-03T08:06:39.847Z,1.80
2022-08-03T08:11:42.674Z,2.17
2022-08-03T08:16:47.785Z,1.92
2022-08-03T08:22:02.425Z,1.98
2022-08-03T08:27:06.081Z,1.88
2022-08-03T08:32:10.809Z,2.00
2022-08-03T08:37:13.557Z,2.00
2022-08-03T08:42:16.626Z,2.00
2022-08-03T08:47:24.155Z,2.00
2022-08-03T08:52:31.787Z,2.10
2022-08-03T08:57:42.708Z,2.05
2022-08-03T09:02:47.471Z,1.90
2022-08-03T09:07:50.637Z,1.85
2022-08-03T09:12:53.766Z,1.80
2022-08-03T09:18:00.398Z,1.70
2022-08-03T09:23:24.698Z,1.70
2022-08-03T09:28:59.411Z,1.95
2022-08-03T09:34:02.423Z,1.70
2022-08-03T09:39:06.892Z,1.70
2022-08-03T09:44:25.359Z,1.90
2022-08-03T09:49:29.740Z,1.88
2022-08-03T09:54:33.776Z,1.48
2022-08-03T09:59:39.116Z,1.60
2022-08-03T10:04:48.461Z,1.67
2022-08-03T10:09:57.613Z,1.73
2022-08-03T10:15:00.830Z,1.80
2022-08-03T10:20:06.568Z,1.70
2022-08-03T10:25:11.802Z,2.10
2022-08-03T10:30:16.735Z,2.17
2022-08-03T10:35:22.881Z,1.80
2022-08-03T10:40:46.844Z,1.90
2022-08-03T10:45:51.219Z,1.90
2022-08-03T10:50:56.702Z,1.90
2022-08-03T10:56:20.350Z,1.65
2022-08-03T11:02:00.850Z,1.67
2022-08-03T11:07:22.556Z,1.77
2022-08-03T11:12:30.855Z,1.60
2022-08-03T11:17:46.270Z,1.95
2022-08-03T11:23:01.153Z,1.70
2022-08-03T11:28:25.527Z,1.92
2022-08-03T11:33:32.020Z,1.92
2022-08-03T11:38:35.466Z,1.90
2022-08-03T11:43:45.260Z,2.00
2022-08-03T11:48:49.795Z,2.00
2022-08-03T11:53:55.074Z,1.77
2022-08-03T11:59:20.354Z,2.30
2022-08-03T12:04:22.558Z,1.50
2022-08-03T12:09:26.280Z,1.73
2022-08-03T12:14:48.713Z,1.75
2022-08-03T12:19:52.927Z,1.73
2022-08-03T12:24:56.240Z,1.63
2022-08-03T12:30:01.028Z,1.88
2022-08-03T12:35:05.492Z,1.65
2022-08-03T12:40:17.806Z,1.60
2022-08-03T12:45:24.124Z,1.70
2022-08-03T12:50:29.046Z,1.85
2022-08-03T12:55:40.131Z,1.95
2022-08-03T13:07:15.239Z,1.80
2022-08-03T13:12:20.899Z,1.42
2022-08-03T13:17:24.204Z,1.60
2022-08-03T13:22:28.506Z,1.55
2022-08-03T13:28:04.353Z,1.52
2022-08-03T13:32:54.746Z,1.90
2022-08-03T13:37:57.826Z,1.58
2022-08-03T13:43:02.426Z,1.85
2022-08-03T13:48:05.918Z,1.67
2022-08-03T13:53:09.014Z,1.50
2022-08-03T13:58:12.691Z,1.70
2022-08-03T14:03:15.538Z,1.92
2022-08-03T14:08:18.334Z,1.70
2022-08-03T14:13:22.711Z,1.65
2022-08-03T14:18:28.639Z,1.70
2022-08-03T14:23:38.043Z,1.60
2022-08-03T14:28:41.907Z,1.58
2022-08-03T14:33:44.800Z,1.73
2022-08-03T14:38:47.534Z,1.50
2022-08-03T14:44:02.239Z,1.42
2022-08-03T14:50:36.396Z,1.60
2022-08-03T14:54:30.494Z,1.70
2022-08-03T14:59:55.854Z,1.45
2022-08-03T15:04:56.251Z,1.50
2022-08-03T15:09:59.061Z,2.00
2022-08-03T15:15:02.357Z,1.45
2022-08-03T15:20:28.967Z,1.60
2022-08-03T15:26:28.679Z,1.67
2022-08-03T15:30:54.736Z,1.90
2022-08-03T15:35:59.542Z,1.45
2022-08-03T15:41:02.249Z,1.40
2022-08-03T15:46:28.619Z,1.50
2022-08-03T15:51:29.266Z,1.33
2022-08-03T15:56:32.184Z,1.45
2022-08-03T16:01:35.777Z,1.33
2022-08-03T16:06:39.468Z,1.75
2022-08-03T16:11:42.158Z,1.33
2022-08-03T16:16:45.866Z,1.73
2022-08-03T16:21:50.184Z,1.10
2022-08-03T16:26:55.578Z,1.20
2022-08-03T16:32:09.317Z,1.50
2022-08-03T16:37:37.085Z,1.50
2022-08-03T16:42:35.344Z,1.20
2022-08-03T16:47:38.826Z,1.40
2022-08-03T16:52:43.067Z,1.40
2022-08-03T16:57:59.119Z,1.40
2022-08-03T17:03:18.777Z,1.55
2022-08-03T17:08:28.155Z,1.40
2022-08-03T17:13:39.177Z,1.48
2022-08-03T17:18:50.407Z,1.40
2022-08-03T17:23:59.461Z,1.30
2022-08-03T17:29:11.303Z,1.50
2022-08-03T17:34:17.280Z,1.30
2022-08-03T17:39:41.876Z,1.60
2022-08-03T17:44:47.106Z,2.38
2022-08-03T17:49:52.309Z,2.53
2022-08-03T17:55:56.226Z,2.25
2022-08-03T18:00:45.150Z,2.63
2022-08-03T18:06:10.439Z,2.25
2022-08-03T18:11:15.909Z,2.17
2022-08-03T18:16:24.647Z,2.35
2022-08-03T18:22:03.231Z,2.40
2022-08-03T18:26:54.724Z,2.30
2022-08-03T18:32:03.798Z,2.30
2022-08-03T18:37:10.424Z,2.30
2022-08-03T18:42:19.614Z,2.33
2022-08-03T18:47:50.841Z,2.40
2022-08-03T18:53:05.029Z,2.35
2022-08-03T18:58:25.612Z,2.67
2022-08-03T19:03:43.402Z,2.30
2022-08-03T19:08:50.818Z,2.33
2022-08-03T19:13:56.434Z,2.03
2022-08-03T19:19:01.451Z,2.60
2022-08-03T19:24:10.155Z,2.60
2022-08-03T19:29:15.171Z,2.88
2022-08-03T19:34:19.506Z,2.80
2022-08-03T19:39:23.272Z,2.72
2022-08-03T19:44:31.309Z,2.50
2022-08-03T19:50:00.004Z,2.42
2022-08-03T19:55:05.260Z,3.40
2022-08-03T20:00:12.119Z,3.00
2022-08-03T20:05:19.580Z,3.40
2022-08-03T20:10:23.306Z,2.83
2022-08-03T20:15:31.149Z,3.00
2022-08-03T20:20:37.293Z,3.28
2022-08-03T20:25:48.680Z,3.30
2022-08-03T20:31:01.983Z,3.20
2022-08-03T20:36:05.539Z,3.15
2022-08-03T20:41:09.565Z,3.35
2022-08-03T20:46:30.973Z,3.30
2022-08-03T20:51:50.626Z,3.08
2022-08-03T20:56:57.659Z,3.20
2022-08-03T21:02:00.940Z,3.20
2022-08-03T21:07:16.294Z,3.17
2022-08-03T21:12:29.179Z,3.17
2022-08-03T21:17:41.591Z,3.25
2022-08-03T21:28:53.802Z,3.28
2022-08-03T21:33:58.272Z,3.70
2022-08-03T21:39:01.564Z,3.60
2022-08-03T21:44:06.103Z,3.72
2022-08-03T21:49:52.646Z,4.35
2022-08-03T21:54:36.569Z,3.42
2022-08-03T21:59:44.863Z,3.55
2022-08-03T22:04:53.174Z,3.65
2022-08-03T22:10:00.910Z,3.70
2022-08-03T22:15:07.005Z,3.42
2022-08-03T22:20:13.855Z,3.60
2022-08-03T22:25:16.601Z,3.55
2022-08-03T22:30:20.183Z,3.20
2022-08-03T22:35:25.178Z,3.20
2022-08-03T22:40:28.071Z,3.63
2022-08-03T22:46:06.206Z,3.35
2022-08-03T22:50:56.608Z,3.33
2022-08-03T22:55:59.364Z,3.45
2022-08-03T23:01:07.017Z,3.13
2022-08-03T23:06:10.123Z,3.50
2022-08-03T23:11:15.241Z,3.53
2022-08-03T23:16:28.987Z,3.58
2022-08-03T23:21:53.676Z,3.13
2022-08-03T23:26:56.700Z,3.10
2022-08-03T23:32:01.843Z,3.80
2022-08-03T23:37:05.862Z,3.35
2022-08-03T23:42:10.031Z,3.33
2022-08-03T23:47:13.643Z,3.13
2022-08-03T23:52:24.171Z,3.00
2022-08-03T23:57:34.047Z,3.33
